sensor_id;sensor_type;location;lat;lon;timestamp;pressure;altitude;pressure_sealevel;temperature;humidity
9335;BME280;4706;41.844;26.082;2023-01-30T00:01:00;101277.47;;;4.80;89.75
9335;BME280;4706;41.844;26.082;2023-01-30T00:03:27;101273.19;;;4.84;89.80
9335;BME280;4706;41.844;26.082;2023-01-30T00:05:52;101272.72;;;4.87;90.15
9335;BME280;4706;41.844;26.082;2023-01-30T00:08:18;101263.63;;;4.82;89.70
9335;BME280;4706;41.844;26.082;2023-01-30T00:10:45;101271.06;;;5.03;88.83
9335;BME280;4706;41.844;26.082;2023-01-30T00:13:11;101271.75;;;5.10;87.32
9335;BME280;4706;41.844;26.082;2023-01-30T00:15:39;101276.03;;;5.06;86.70
9335;BME280;4706;41.844;26.082;2023-01-30T00:18:05;101271.97;;;4.92;88.10
9335;BME280;4706;41.844;26.082;2023-01-30T00:20:30;101263.91;;;4.69;89.03
9335;BME280;4706;41.844;26.082;2023-01-30T00:22:56;101264.69;;;4.81;88.99
9335;BME280;4706;41.844;26.082;2023-01-30T00:25:24;101255.81;;;4.74;89.92
9335;BME280;4706;41.844;26.082;2023-01-30T00:27:49;101264.25;;;4.72;90.00
9335;BME280;4706;41.844;26.082;2023-01-30T00:30:15;101271.34;;;4.73;89.78
9335;BME280;4706;41.844;26.082;2023-01-30T00:32:40;101261.97;;;4.81;89.89
9335;BME280;4706;41.844;26.082;2023-01-30T00:35:06;101255.94;;;4.96;89.70
9335;BME280;4706;41.844;26.082;2023-01-30T00:37:32;101260.09;;;4.98;88.75
9335;BME280;4706;41.844;26.082;2023-01-30T00:39:57;101250.81;;;4.99;88.10
9335;BME280;4706;41.844;26.082;2023-01-30T00:42:22;101250.97;;;4.93;88.62
9335;BME280;4706;41.844;26.082;2023-01-30T00:45:11;101252.16;;;4.97;88.23
9335;BME280;4706;41.844;26.082;2023-01-30T00:47:57;101244.63;;;4.87;89.17
9335;BME280;4706;41.844;26.082;2023-01-30T00:50:23;101250.50;;;4.96;88.73
9335;BME280;4706;41.844;26.082;2023-01-30T00:52:48;101240.06;;;4.93;89.04
9335;BME280;4706;41.844;26.082;2023-01-30T00:55:14;101246.53;;;5.03;88.31
9335;BME280;4706;41.844;26.082;2023-01-30T00:57:40;101248.03;;;4.94;88.69
9335;BME280;4706;41.844;26.082;2023-01-30T01:00:06;101247.53;;;5.14;87.30
9335;BME280;4706;41.844;26.082;2023-01-30T01:02:33;101240.16;;;5.15;87.11
9335;BME280;4706;41.844;26.082;2023-01-30T01:04:59;101234.38;;;5.11;86.34
9335;BME280;4706;41.844;26.082;2023-01-30T01:07:25;101238.25;;;5.15;86.37
9335;BME280;4706;41.844;26.082;2023-01-30T01:09:50;101244.81;;;5.14;85.92
9335;BME280;4706;41.844;26.082;2023-01-30T01:12:16;101239.59;;;5.13;85.83
9335;BME280;4706;41.844;26.082;2023-01-30T01:14:41;101243.00;;;5.20;85.35
9335;BME280;4706;41.844;26.082;2023-01-30T01:17:07;101239.75;;;5.06;85.96
9335;BME280;4706;41.844;26.082;2023-01-30T01:19:32;101234.56;;;5.21;85.16
9335;BME280;4706;41.844;26.082;2023-01-30T01:21:57;101233.00;;;5.08;85.75
9335;BME280;4706;41.844;26.082;2023-01-30T01:24:23;101231.59;;;4.89;86.37
9335;BME280;4706;41.844;26.082;2023-01-30T01:26:48;101230.16;;;5.03;86.68
9335;BME280;4706;41.844;26.082;2023-01-30T01:29:15;101240.03;;;5.04;86.38
9335;BME280;4706;41.844;26.082;2023-01-30T01:31:41;101227.97;;;5.00;86.76
9335;BME280;4706;41.844;26.082;2023-01-30T01:34:07;101231.66;;;5.28;85.09
9335;BME280;4706;41.844;26.082;2023-01-30T01:36:33;101234.88;;;5.25;85.06
9335;BME280;4706;41.844;26.082;2023-01-30T01:38:58;101235.72;;;5.08;86.25
9335;BME280;4706;41.844;26.082;2023-01-30T01:41:24;101229.69;;;5.23;85.85
9335;BME280;4706;41.844;26.082;2023-01-30T01:44:05;101231.19;;;5.31;84.65
9335;BME280;4706;41.844;26.082;2023-01-30T01:46:44;101223.47;;;5.28;85.17
9335;BME280;4706;41.844;26.082;2023-01-30T01:49:25;101230.00;;;5.44;83.94
9335;BME280;4706;41.844;26.082;2023-01-30T01:57:11;101216.06;;;5.23;84.86
9335;BME280;4706;41.844;26.082;2023-01-30T01:59:44;101220.53;;;5.13;85.34
9335;BME280;4706;41.844;26.082;2023-01-30T02:02:12;101196.78;;;4.96;85.84
9335;BME280;4706;41.844;26.082;2023-01-30T02:04:41;101200.41;;;5.19;85.36
9335;BME280;4706;41.844;26.082;2023-01-30T02:09:59;101192.16;;;5.14;86.18
9335;BME280;4706;41.844;26.082;2023-01-30T02:12:25;101202.00;;;5.15;85.53
9335;BME280;4706;41.844;26.082;2023-01-30T02:14:51;101196.78;;;4.96;86.35
9335;BME280;4706;41.844;26.082;2023-01-30T02:17:19;101188.47;;;4.86;86.97
9335;BME280;4706;41.844;26.082;2023-01-30T02:19:53;101184.81;;;5.14;86.11
9335;BME280;4706;41.844;26.082;2023-01-30T02:22:35;101190.69;;;5.06;85.15
9335;BME280;4706;41.844;26.082;2023-01-30T02:33:40;101180.44;;;4.96;86.22
9335;BME280;4706;41.844;26.082;2023-01-30T02:36:20;101181.78;;;4.94;87.43
9335;BME280;4706;41.844;26.082;2023-01-30T02:39:03;101180.59;;;4.73;88.19
9335;BME280;4706;41.844;26.082;2023-01-30T02:46:57;101169.16;;;4.71;88.47
9335;BME280;4706;41.844;26.082;2023-01-30T02:49:42;101169.97;;;4.71;88.39
9335;BME280;4706;41.844;26.082;2023-01-30T02:52:11;101161.53;;;4.73;88.39
9335;BME280;4706;41.844;26.082;2023-01-30T02:54:37;101172.44;;;4.90;87.44
9335;BME280;4706;41.844;26.082;2023-01-30T02:57:03;101173.59;;;4.77;87.51
9335;BME280;4706;41.844;26.082;2023-01-30T02:59:44;101172.34;;;4.84;87.51
9335;BME280;4706;41.844;26.082;2023-01-30T03:08:19;101170.63;;;4.78;88.86
9335;BME280;4706;41.844;26.082;2023-01-30T03:16:18;101163.59;;;4.82;88.10
9335;BME280;4706;41.844;26.082;2023-01-30T03:18:46;101159.97;;;4.94;88.85
9335;BME280;4706;41.844;26.082;2023-01-30T03:21:12;101160.41;;;4.85;89.54
9335;BME280;4706;41.844;26.082;2023-01-30T03:23:38;101151.19;;;4.92;88.77
9335;BME280;4706;41.844;26.082;2023-01-30T03:26:05;101161.94;;;4.98;87.74
9335;BME280;4706;41.844;26.082;2023-01-30T03:28:33;101160.47;;;4.91;88.00
9335;BME280;4706;41.844;26.082;2023-01-30T03:30:59;101157.50;;;4.75;88.60
9335;BME280;4706;41.844;26.082;2023-01-30T03:33:24;101161.13;;;4.81;88.18
9335;BME280;4706;41.844;26.082;2023-01-30T03:35:50;101157.97;;;4.72;89.38
9335;BME280;4706;41.844;26.082;2023-01-30T03:38:16;101160.03;;;4.65;89.60
9335;BME280;4706;41.844;26.082;2023-01-30T03:40:42;101157.22;;;4.77;88.17
9335;BME280;4706;41.844;26.082;2023-01-30T03:43:08;101159.72;;;4.61;89.46
9335;BME280;4706;41.844;26.082;2023-01-30T03:45:34;101155.25;;;4.55;89.73
9335;BME280;4706;41.844;26.082;2023-01-30T03:47:59;101157.72;;;4.74;89.56
9335;BME280;4706;41.844;26.082;2023-01-30T03:50:25;101161.69;;;4.66;89.58
9335;BME280;4706;41.844;26.082;2023-01-30T03:52:50;101167.13;;;4.66;89.23
9335;BME280;4706;41.844;26.082;2023-01-30T03:55:16;101162.59;;;4.55;90.66
9335;BME280;4706;41.844;26.082;2023-01-30T03:57:41;101166.00;;;4.79;89.54
9335;BME280;4706;41.844;26.082;2023-01-30T04:00:08;101162.03;;;4.70;90.30
9335;BME280;4706;41.844;26.082;2023-01-30T04:02:33;101165.66;;;4.75;89.72
9335;BME280;4706;41.844;26.082;2023-01-30T04:04:59;101161.53;;;4.73;89.92
9335;BME280;4706;41.844;26.082;2023-01-30T04:07:24;101154.84;;;4.63;90.92
9335;BME280;4706;41.844;26.082;2023-01-30T04:09:52;101160.44;;;4.74;89.88
9335;BME280;4706;41.844;26.082;2023-01-30T04:12:17;101152.88;;;4.59;90.69
9335;BME280;4706;41.844;26.082;2023-01-30T04:14:43;101150.22;;;4.64;91.28
9335;BME280;4706;41.844;26.082;2023-01-30T04:17:08;101149.16;;;4.65;90.87
9335;BME280;4706;41.844;26.082;2023-01-30T04:19:34;101157.22;;;4.77;90.95
9335;BME280;4706;41.844;26.082;2023-01-30T04:21:59;101150.31;;;4.86;89.74
9335;BME280;4706;41.844;26.082;2023-01-30T04:24:25;101158.81;;;4.90;89.76
9335;BME280;4706;41.844;26.082;2023-01-30T04:26:50;101158.72;;;4.84;89.97
9335;BME280;4706;41.844;26.082;2023-01-30T04:29:15;101159.81;;;4.67;90.09
9335;BME280;4706;41.844;26.082;2023-01-30T04:31:41;101155.97;;;4.51;91.70
9335;BME280;4706;41.844;26.082;2023-01-30T04:34:06;101157.44;;;4.70;91.46
9335;BME280;4706;41.844;26.082;2023-01-30T04:36:32;101157.97;;;4.72;90.36
9335;BME280;4706;41.844;26.082;2023-01-30T04:38:57;101153.78;;;4.65;90.09
9335;BME280;4706;41.844;26.082;2023-01-30T04:41:23;101160.13;;;4.53;91.20
9335;BME280;4706;41.844;26.082;2023-01-30T04:43:48;101151.69;;;4.55;91.83
9335;BME280;4706;41.844;26.082;2023-01-30T04:46:14;101155.00;;;4.57;91.18
9335;BME280;4706;41.844;26.082;2023-01-30T04:48:39;101157.31;;;4.48;92.32
9335;BME280;4706;41.844;26.082;2023-01-30T04:51:05;101156.56;;;4.53;92.36
9335;BME280;4706;41.844;26.082;2023-01-30T04:53:30;101155.81;;;4.57;92.82
9335;BME280;4706;41.844;26.082;2023-01-30T04:55:56;101155.75;;;4.52;92.56
9335;BME280;4706;41.844;26.082;2023-01-30T04:58:21;101151.31;;;4.63;92.35
9335;BME280;4706;41.844;26.082;2023-01-30T05:00:47;101158.41;;;4.64;91.84
9335;BME280;4706;41.844;26.082;2023-01-30T05:03:14;101159.53;;;4.51;91.54
9335;BME280;4706;41.844;26.082;2023-01-30T05:05:39;101154.91;;;4.35;92.71
9335;BME280;4706;41.844;26.082;2023-01-30T05:08:05;101142.84;;;4.31;92.93
9335;BME280;4706;41.844;26.082;2023-01-30T05:10:31;101153.09;;;4.41;92.55
9335;BME280;4706;41.844;26.082;2023-01-30T05:13:01;101153.19;;;4.46;92.92
9335;BME280;4706;41.844;26.082;2023-01-30T05:15:27;101165.31;;;4.55;91.80
9335;BME280;4706;41.844;26.082;2023-01-30T05:17:52;101158.56;;;4.41;92.01
9335;BME280;4706;41.844;26.082;2023-01-30T05:20:17;101154.50;;;4.43;92.25
9335;BME280;4706;41.844;26.082;2023-01-30T05:22:43;101129.44;;;4.12;93.67
9335;BME280;4706;41.844;26.082;2023-01-30T05:25:09;101163.72;;;4.25;93.79
9335;BME280;4706;41.844;26.082;2023-01-30T05:27:34;101163.09;;;4.06;94.61
9335;BME280;4706;41.844;26.082;2023-01-30T05:30:00;101174.81;;;4.07;94.28
9335;BME280;4706;41.844;26.082;2023-01-30T05:32:25;101162.78;;;4.20;95.11
9335;BME280;4706;41.844;26.082;2023-01-30T05:34:54;101158.81;;;4.10;95.38
9335;BME280;4706;41.844;26.082;2023-01-30T05:37:20;101171.69;;;4.15;95.23
9335;BME280;4706;41.844;26.082;2023-01-30T05:39:46;101148.03;;;4.32;93.84
9335;BME280;4706;41.844;26.082;2023-01-30T05:42:11;101169.53;;;4.46;92.31
9335;BME280;4706;41.844;26.082;2023-01-30T05:44:37;101166.72;;;4.41;92.51
9335;BME280;4706;41.844;26.082;2023-01-30T05:47:03;101171.75;;;4.49;92.06
9335;BME280;4706;41.844;26.082;2023-01-30T05:49:28;101165.72;;;4.47;92.67
9335;BME280;4706;41.844;26.082;2023-01-30T05:51:54;101167.63;;;4.46;92.65
9335;BME280;4706;41.844;26.082;2023-01-30T05:54:19;101164.81;;;4.41;93.04
9335;BME280;4706;41.844;26.082;2023-01-30T05:56:48;101164.56;;;4.43;93.18
9335;BME280;4706;41.844;26.082;2023-01-30T05:59:14;101159.78;;;4.50;93.14
9335;BME280;4706;41.844;26.082;2023-01-30T06:01:39;101167.97;;;4.50;92.44
9335;BME280;4706;41.844;26.082;2023-01-30T06:04:05;101170.50;;;4.39;93.13
9335;BME280;4706;41.844;26.082;2023-01-30T06:06:30;101167.09;;;4.32;94.35
9335;BME280;4706;41.844;26.082;2023-01-30T06:08:56;101168.09;;;4.43;93.13
9335;BME280;4706;41.844;26.082;2023-01-30T06:11:22;101166.28;;;4.32;93.49
9335;BME280;4706;41.844;26.082;2023-01-30T06:13:48;101162.63;;;4.26;94.02
9335;BME280;4706;41.844;26.082;2023-01-30T06:16:15;101166.16;;;4.10;94.97
9335;BME280;4706;41.844;26.082;2023-01-30T06:18:41;101167.34;;;4.31;93.72
9335;BME280;4706;41.844;26.082;2023-01-30T06:21:08;101165.38;;;4.26;94.53
9335;BME280;4706;41.844;26.082;2023-01-30T06:23:34;101167.66;;;4.18;95.30
9335;BME280;4706;41.844;26.082;2023-01-30T06:26:00;101177.34;;;4.25;95.41
9335;BME280;4706;41.844;26.082;2023-01-30T06:28:26;101177.34;;;4.25;95.07
9335;BME280;4706;41.844;26.082;2023-01-30T06:30:52;101174.69;;;4.30;94.60
9335;BME280;4706;41.844;26.082;2023-01-30T06:33:17;101173.28;;;4.28;94.77
9335;BME280;4706;41.844;26.082;2023-01-30T06:35:43;101171.38;;;4.28;94.88
9335;BME280;4706;41.844;26.082;2023-01-30T06:38:10;101168.28;;;4.36;94.13
9335;BME280;4706;41.844;26.082;2023-01-30T06:40:38;101168.50;;;4.35;94.10
9335;BME280;4706;41.844;26.082;2023-01-30T06:43:04;101168.75;;;4.33;94.10
9335;BME280;4706;41.844;26.082;2023-01-30T06:45:29;101171.22;;;4.35;93.78
9335;BME280;4706;41.844;26.082;2023-01-30T06:47:55;101173.81;;;4.42;93.24
9335;BME280;4706;41.844;26.082;2023-01-30T06:50:26;101178.88;;;4.83;100.00
9335;BME280;4706;41.844;26.082;2023-01-30T06:52:53;101168.69;;;6.71;100.00
9335;BME280;4706;41.844;26.082;2023-01-30T06:55:21;101174.50;;;6.48;100.00
9335;BME280;4706;41.844;26.082;2023-01-30T06:57:48;101171.69;;;6.16;95.13
9335;BME280;4706;41.844;26.082;2023-01-30T07:00:16;101178.81;;;5.73;94.16
9335;BME280;4706;41.844;26.082;2023-01-30T07:02:42;101171.06;;;5.43;95.03
9335;BME280;4706;41.844;26.082;2023-01-30T07:05:09;101184.97;;;5.24;93.84
9335;BME280;4706;41.844;26.082;2023-01-30T07:07:34;101181.75;;;5.27;91.58
9335;BME280;4706;41.844;26.082;2023-01-30T07:10:01;101178.69;;;5.24;90.48
9335;BME280;4706;41.844;26.082;2023-01-30T07:12:27;101173.59;;;4.94;91.59
9335;BME280;4706;41.844;26.082;2023-01-30T07:14:53;101173.00;;;4.92;91.80
9335;BME280;4706;41.844;26.082;2023-01-30T07:17:19;101170.03;;;4.76;93.19
9335;BME280;4706;41.844;26.082;2023-01-30T07:19:45;101154.50;;;4.77;93.37
9335;BME280;4706;41.844;26.082;2023-01-30T07:22:11;101168.06;;;4.88;93.40
9335;BME280;4706;41.844;26.082;2023-01-30T07:24:37;101170.97;;;4.82;93.33
9335;BME280;4706;41.844;26.082;2023-01-30T07:27:10;101167.09;;;4.78;93.61
9335;BME280;4706;41.844;26.082;2023-01-30T07:29:37;101164.75;;;4.70;94.03
9335;BME280;4706;41.844;26.082;2023-01-30T07:32:06;101160.88;;;4.66;93.56
9335;BME280;4706;41.844;26.082;2023-01-30T07:34:32;101161.72;;;4.83;92.64
9335;BME280;4706;41.844;26.082;2023-01-30T07:36:58;101156.75;;;4.80;93.08
9335;BME280;4706;41.844;26.082;2023-01-30T07:39:23;101150.47;;;4.79;93.71
9335;BME280;4706;41.844;26.082;2023-01-30T07:41:49;101150.47;;;4.79;93.45
9335;BME280;4706;41.844;26.082;2023-01-30T07:44:14;101161.22;;;4.86;93.92
9335;BME280;4706;41.844;26.082;2023-01-30T07:46:39;101160.72;;;4.89;93.76
9335;BME280;4706;41.844;26.082;2023-01-30T07:49:06;101159.38;;;4.92;93.35
9335;BME280;4706;41.844;26.082;2023-01-30T07:51:33;101143.72;;;4.82;93.21
9335;BME280;4706;41.844;26.082;2023-01-30T07:53:58;101148.81;;;4.95;93.04
9335;BME280;4706;41.844;26.082;2023-01-30T07:56:26;101161.53;;;5.06;92.92
9335;BME280;4706;41.844;26.082;2023-01-30T07:58:54;101156.16;;;4.95;93.55
9335;BME280;4706;41.844;26.082;2023-01-30T08:01:19;101160.53;;;5.13;91.53
9335;BME280;4706;41.844;26.082;2023-01-30T08:03:45;101158.63;;;5.13;91.80
9335;BME280;4706;41.844;26.082;2023-01-30T08:06:14;101159.13;;;5.10;92.60
9335;BME280;4706;41.844;26.082;2023-01-30T08:08:39;101163.81;;;5.15;92.48
9335;BME280;4706;41.844;26.082;2023-01-30T08:11:05;101158.25;;;5.26;92.52
9335;BME280;4706;41.844;26.082;2023-01-30T08:13:31;101162.81;;;5.21;92.17
9335;BME280;4706;41.844;26.082;2023-01-30T08:16:04;101156.28;;;5.22;91.63
9335;BME280;4706;41.844;26.082;2023-01-30T08:18:31;101163.91;;;5.20;91.91
9335;BME280;4706;41.844;26.082;2023-01-30T08:21:01;101168.94;;;5.28;91.77
9335;BME280;4706;41.844;26.082;2023-01-30T08:23:27;101149.69;;;5.18;91.59
9335;BME280;4706;41.844;26.082;2023-01-30T08:25:58;101157.53;;;5.31;91.18
9335;BME280;4706;41.844;26.082;2023-01-30T08:28:24;101152.13;;;5.36;90.09
9335;BME280;4706;41.844;26.082;2023-01-30T08:30:50;101152.41;;;5.34;89.81
9335;BME280;4706;41.844;26.082;2023-01-30T08:33:18;101155.53;;;5.26;89.54
9335;BME280;4706;41.844;26.082;2023-01-30T08:35:43;101157.53;;;5.14;91.21
9335;BME280;4706;41.844;26.082;2023-01-30T08:38:09;101158.22;;;5.04;92.62
9335;BME280;4706;41.844;26.082;2023-01-30T08:40:35;101163.59;;;5.16;91.50
9335;BME280;4706;41.844;26.082;2023-01-30T08:43:01;101147.72;;;4.96;93.09
9335;BME280;4706;41.844;26.082;2023-01-30T08:45:27;101151.94;;;5.04;92.91
9335;BME280;4706;41.844;26.082;2023-01-30T08:47:52;101153.56;;;5.22;91.86
9335;BME280;4706;41.844;26.082;2023-01-30T08:50:19;101155.84;;;5.30;90.58
9335;BME280;4706;41.844;26.082;2023-01-30T08:52:45;101144.72;;;5.15;91.83
9335;BME280;4706;41.844;26.082;2023-01-30T08:55:10;101137.13;;;5.17;93.27
9335;BME280;4706;41.844;26.082;2023-01-30T08:57:36;101139.88;;;5.17;93.14
9335;BME280;4706;41.844;26.082;2023-01-30T09:00:02;101135.81;;;5.19;92.59
9335;BME280;4706;41.844;26.082;2023-01-30T09:02:28;101141.97;;;5.31;93.36
9335;BME280;4706;41.844;26.082;2023-01-30T09:04:54;101132.88;;;5.43;92.40
9335;BME280;4706;41.844;26.082;2023-01-30T09:07:19;101134.69;;;5.59;91.78
9335;BME280;4706;41.844;26.082;2023-01-30T09:09:45;101136.44;;;5.65;90.98
9335;BME280;4706;41.844;26.082;2023-01-30T09:12:10;101129.19;;;5.54;92.42
9335;BME280;4706;41.844;26.082;2023-01-30T09:14:36;101126.13;;;5.50;92.38
9335;BME280;4706;41.844;26.082;2023-01-30T09:17:01;101124.81;;;5.31;92.83
9335;BME280;4706;41.844;26.082;2023-01-30T09:19:27;101116.66;;;5.36;92.81
9335;BME280;4706;41.844;26.082;2023-01-30T09:21:54;101125.81;;;5.47;92.67
9335;BME280;4706;41.844;26.082;2023-01-30T09:24:20;101118.72;;;5.46;92.71
9335;BME280;4706;41.844;26.082;2023-01-30T09:26:54;101115.09;;;5.62;92.48
9335;BME280;4706;41.844;26.082;2023-01-30T09:29:24;101114.78;;;5.58;92.58
9335;BME280;4706;41.844;26.082;2023-01-30T09:31:49;101106.84;;;5.57;92.95
9335;BME280;4706;41.844;26.082;2023-01-30T09:34:15;101086.16;;;5.61;92.86
9335;BME280;4706;41.844;26.082;2023-01-30T09:36:41;101090.53;;;5.62;93.41
9335;BME280;4706;41.844;26.082;2023-01-30T09:39:06;101080.91;;;5.54;92.83
9335;BME280;4706;41.844;26.082;2023-01-30T09:47:20;101079.28;;;5.80;91.07
9335;BME280;4706;41.844;26.082;2023-01-30T09:50:10;101073.75;;;5.75;91.04
9335;BME280;4706;41.844;26.082;2023-01-30T09:53:05;101069.38;;;5.74;91.85
9335;BME280;4706;41.844;26.082;2023-01-30T09:55:38;101055.69;;;5.69;90.97
9335;BME280;4706;41.844;26.082;2023-01-30T09:58:14;101076.44;;;5.70;91.80
9335;BME280;4706;41.844;26.082;2023-01-30T10:00:41;101055.56;;;5.59;91.73
9335;BME280;4706;41.844;26.082;2023-01-30T10:03:16;101057.44;;;5.53;91.89
9335;BME280;4706;41.844;26.082;2023-01-30T10:16:28;101025.41;;;5.71;92.06
9335;BME280;4706;41.844;26.082;2023-01-30T10:27:55;101006.22;;;5.60;91.86
9335;BME280;4706;41.844;26.082;2023-01-30T10:30:21;100998.56;;;5.63;91.74
9335;BME280;4706;41.844;26.082;2023-01-30T10:32:52;101004.31;;;5.61;92.47
9335;BME280;4706;41.844;26.082;2023-01-30T10:35:26;100997.47;;;5.64;92.61
9335;BME280;4706;41.844;26.082;2023-01-30T10:38:16;100985.28;;;5.71;92.64
9335;BME280;4706;41.844;26.082;2023-01-30T10:43:41;100958.00;;;5.71;92.40
9335;BME280;4706;41.844;26.082;2023-01-30T10:49:00;100962.38;;;5.72;92.63
9335;BME280;4706;41.844;26.082;2023-01-30T10:54:36;100947.50;;;5.90;91.03
9335;BME280;4706;41.844;26.082;2023-01-30T10:57:48;100946.78;;;5.95;91.22
9335;BME280;4706;41.844;26.082;2023-01-30T11:00:21;100939.00;;;5.87;91.36
9335;BME280;4706;41.844;26.082;2023-01-30T11:05:39;100933.38;;;5.93;92.72
9335;BME280;4706;41.844;26.082;2023-01-30T11:10:45;100917.63;;;6.05;92.20
9335;BME280;4706;41.844;26.082;2023-01-30T11:13:32;100920.09;;;6.07;92.18
9335;BME280;4706;41.844;26.082;2023-01-30T11:16:04;100908.41;;;6.17;93.54
9335;BME280;4706;41.844;26.082;2023-01-30T11:18:30;100902.53;;;6.35;93.08
9335;BME280;4706;41.844;26.082;2023-01-30T11:21:23;100893.28;;;6.41;92.71
9335;BME280;4706;41.844;26.082;2023-01-30T11:23:49;100886.47;;;6.49;91.78
9335;BME280;4706;41.844;26.082;2023-01-30T11:26:28;100878.00;;;6.45;90.09
9335;BME280;4706;41.844;26.082;2023-01-30T11:28:57;100881.84;;;6.49;89.59
9335;BME280;4706;41.844;26.082;2023-01-30T11:31:27;100877.81;;;6.67;88.19
9335;BME280;4706;41.844;26.082;2023-01-30T11:34:09;100877.53;;;6.64;89.30
9335;BME280;4706;41.844;26.082;2023-01-30T11:36:36;100869.63;;;6.62;89.05
9335;BME280;4706;41.844;26.082;2023-01-30T11:39:27;100867.16;;;6.66;89.02
9335;BME280;4706;41.844;26.082;2023-01-30T11:44:24;100862.03;;;6.95;87.37
9335;BME280;4706;41.844;26.082;2023-01-30T11:46:50;100863.19;;;7.09;88.42
9335;BME280;4706;41.844;26.082;2023-01-30T11:49:17;100856.63;;;7.20;86.90
9335;BME280;4706;41.844;26.082;2023-01-30T11:51:46;100854.44;;;7.17;87.53
9335;BME280;4706;41.844;26.082;2023-01-30T11:54:17;100846.78;;;7.24;87.05
9335;BME280;4706;41.844;26.082;2023-01-30T11:56:55;100835.84;;;7.19;87.86
9335;BME280;4706;41.844;26.082;2023-01-30T11:59:25;100839.41;;;7.35;86.81
9335;BME280;4706;41.844;26.082;2023-01-30T12:02:10;100828.47;;;7.50;87.20
9335;BME280;4706;41.844;26.082;2023-01-30T12:04:43;100830.41;;;7.60;84.58
9335;BME280;4706;41.844;26.082;2023-01-30T12:07:27;100830.94;;;7.67;84.50
9335;BME280;4706;41.844;26.082;2023-01-30T12:09:54;100819.41;;;7.86;83.34
9335;BME280;4706;41.844;26.082;2023-01-30T12:12:39;100816.38;;;7.92;80.85
9335;BME280;4706;41.844;26.082;2023-01-30T12:18:04;100803.75;;;8.07;79.57
9335;BME280;4706;41.844;26.082;2023-01-30T12:24:24;100788.75;;;7.94;77.06
9335;BME280;4706;41.844;26.082;2023-01-30T12:26:57;100792.06;;;7.75;77.09
9335;BME280;4706;41.844;26.082;2023-01-30T12:32:11;100800.56;;;7.64;75.63
9335;BME280;4706;41.844;26.082;2023-01-30T12:34:38;100786.03;;;7.58;74.67
9335;BME280;4706;41.844;26.082;2023-01-30T12:45:34;100765.25;;;7.67;75.52
9335;BME280;4706;41.844;26.082;2023-01-30T12:50:51;100758.66;;;7.78;74.60
9335;BME280;4706;41.844;26.082;2023-01-30T12:53:29;100764.41;;;7.72;72.72
9335;BME280;4706;41.844;26.082;2023-01-30T13:02:33;100755.41;;;7.25;74.76
9335;BME280;4706;41.844;26.082;2023-01-30T13:08:08;100755.97;;;6.97;76.32
9335;BME280;4706;41.844;26.082;2023-01-30T13:13:36;100757.59;;;6.98;78.16
9335;BME280;4706;41.844;26.082;2023-01-30T13:16:31;100745.56;;;6.99;80.68
9335;BME280;4706;41.844;26.082;2023-01-30T13:19:51;100752.66;;;6.95;77.77
9335;BME280;4706;41.844;26.082;2023-01-30T13:27:26;100735.97;;;6.76;78.99
9335;BME280;4706;41.844;26.082;2023-01-30T13:29:54;100746.38;;;6.79;76.89
9335;BME280;4706;41.844;26.082;2023-01-30T13:32:29;100741.69;;;6.59;78.48
9335;BME280;4706;41.844;26.082;2023-01-30T13:34:58;100728.84;;;6.60;77.37
9335;BME280;4706;41.844;26.082;2023-01-30T13:37:25;100729.09;;;6.48;78.03
9335;BME280;4706;41.844;26.082;2023-01-30T13:39:56;100740.03;;;6.48;77.71
9335;BME280;4706;41.844;26.082;2023-01-30T13:45:19;100734.84;;;6.62;78.05
9335;BME280;4706;41.844;26.082;2023-01-30T13:53:13;100726.41;;;6.73;77.72
9335;BME280;4706;41.844;26.082;2023-01-30T14:01:01;100706.16;;;6.64;78.86
9335;BME280;4706;41.844;26.082;2023-01-30T14:03:28;100711.09;;;6.67;77.19
9335;BME280;4706;41.844;26.082;2023-01-30T14:08:37;100704.81;;;6.67;75.87
9335;BME280;4706;41.844;26.082;2023-01-30T14:11:03;100703.16;;;6.76;75.52
9335;BME280;4706;41.844;26.082;2023-01-30T14:13:29;100695.78;;;6.61;75.96
9335;BME280;4706;41.844;26.082;2023-01-30T14:16:04;100702.88;;;6.57;76.58
9335;BME280;4706;41.844;26.082;2023-01-30T14:18:32;100692.47;;;6.49;76.63
9335;BME280;4706;41.844;26.082;2023-01-30T14:21:19;100698.44;;;6.25;78.29
9335;BME280;4706;41.844;26.082;2023-01-30T14:23:57;100691.34;;;6.35;79.28
9335;BME280;4706;41.844;26.082;2023-01-30T14:40:00;100682.66;;;6.53;82.06
9335;BME280;4706;41.844;26.082;2023-01-30T14:42:26;100669.25;;;6.62;81.33
9335;BME280;4706;41.844;26.082;2023-01-30T14:45:04;100667.91;;;6.59;82.07
9335;BME280;4706;41.844;26.082;2023-01-30T14:47:34;100677.72;;;6.45;81.96
9335;BME280;4706;41.844;26.082;2023-01-30T14:50:00;100678.53;;;6.40;82.85
9335;BME280;4706;41.844;26.082;2023-01-30T14:52:33;100676.88;;;6.34;83.84
9335;BME280;4706;41.844;26.082;2023-01-30T14:55:01;100673.59;;;6.32;83.19
9335;BME280;4706;41.844;26.082;2023-01-30T14:57:28;100670.56;;;6.23;82.86
9335;BME280;4706;41.844;26.082;2023-01-30T15:00:14;100671.34;;;6.03;85.41
9335;BME280;4706;41.844;26.082;2023-01-30T15:02:48;100671.06;;;6.05;86.25
9335;BME280;4706;41.844;26.082;2023-01-30T15:05:33;100666.41;;;6.05;85.76
9335;BME280;4706;41.844;26.082;2023-01-30T15:08:14;100668.06;;;6.12;86.13
9335;BME280;4706;41.844;26.082;2023-01-30T15:27:10;100671.63;;;6.02;87.86
9335;BME280;4706;41.844;26.082;2023-01-30T15:29:54;100661.50;;;6.02;88.70
9335;BME280;4706;41.844;26.082;2023-01-30T15:32:25;100663.44;;;6.07;89.60
9335;BME280;4706;41.844;26.082;2023-01-30T15:35:29;100668.06;;;6.12;88.72
9335;BME280;4706;41.844;26.082;2023-01-30T15:37:54;100665.63;;;6.20;88.01
9335;BME280;4706;41.844;26.082;2023-01-30T15:40:21;100663.19;;;6.19;88.65
9335;BME280;4706;41.844;26.082;2023-01-30T15:42:49;100661.81;;;6.16;88.67
9335;BME280;4706;41.844;26.082;2023-01-30T15:50:16;100672.16;;;6.04;89.67
9335;BME280;4706;41.844;26.082;2023-01-30T15:52:45;100671.06;;;6.05;89.58
9335;BME280;4706;41.844;26.082;2023-01-30T15:55:31;100671.88;;;6.00;88.81
9335;BME280;4706;41.844;26.082;2023-01-30T15:58:04;100673.78;;;6.05;88.70
9335;BME280;4706;41.844;26.082;2023-01-30T16:00:40;100668.34;;;6.10;88.31
9335;BME280;4706;41.844;26.082;2023-01-30T16:03:11;100676.56;;;6.15;87.47
9335;BME280;4706;41.844;26.082;2023-01-30T16:05:49;100676.56;;;6.10;87.58